createdAt,value
2019-05-15T00:01:54.091Z,63.11
2019-05-15T00:04:28.025Z,63.09
2019-05-15T00:06:59.857Z,63.08
2019-05-15T00:09:31.625Z,62.98
2019-05-15T00:12:03.282Z,62.78
2019-05-15T00:14:35.334Z,62.63
2019-05-15T00:17:08.220Z,62.58
2019-05-15T00:19:39.883Z,62.60
2019-05-15T00:22:11.523Z,62.69
2019-05-15T00:24:43.284Z,62.91
2019-05-15T00:27:15.755Z,62.85
2019-05-15T00:29:48.668Z,62.91
2019-05-15T00:32:20.396Z,62.95
2019-05-15T00:34:52.280Z,63.03
2019-05-15T00:37:24.245Z,63.10
2019-05-15T00:39:56.287Z,63.15
2019-05-15T00:42:28.494Z,63.27
2019-05-15T00:45:00.314Z,63.16
2019-05-15T00:47:32.993Z,63.28
2019-05-15T00:50:09.654Z,63.32
2019-05-15T00:52:41.535Z,63.40
2019-05-15T00:55:13.283Z,63.45
2019-05-15T00:57:44.938Z,63.47
2019-05-15T01:00:19.480Z,63.53
2019-05-15T01:02:51.215Z,63.51
2019-05-15T01:05:24.623Z,63.65
2019-05-15T01:07:58.697Z,63.70
2019-05-15T01:10:30.385Z,63.83
2019-05-15T01:13:01.933Z,64.04
2019-05-15T01:15:33.721Z,64.22
2019-05-15T01:18:05.467Z,64.30
2019-05-15T01:20:39.039Z,64.24
2019-05-15T01:23:10.604Z,64.33
2019-05-15T01:25:42.660Z,64.29
2019-05-15T01:28:14.525Z,64.27
2019-05-15T01:30:48.447Z,64.46
2019-05-15T01:33:20.098Z,64.41
2019-05-15T01:35:51.985Z,64.42
2019-05-15T01:38:23.703Z,64.28
2019-05-15T01:40:55.563Z,64.34
2019-05-15T01:43:29.162Z,64.71
2019-05-15T01:46:00.759Z,64.70
2019-05-15T01:48:32.414Z,64.67
2019-05-15T01:51:04.334Z,64.40
2019-05-15T01:53:38.338Z,64.30
2019-05-15T01:56:09.487Z,64.24
2019-05-15T01:58:41.142Z,64.18
2019-05-15T02:01:13.224Z,64.14
2019-05-15T02:03:44.596Z,64.19
2019-05-15T02:06:18.911Z,64.03
2019-05-15T02:08:49.938Z,64.06
2019-05-15T02:11:21.590Z,64.07
2019-05-15T02:13:53.367Z,64.54
2019-05-15T02:16:28.406Z,65.09
2019-05-15T02:18:59.201Z,65.32
2019-05-15T02:21:30.664Z,65.54
2019-05-15T02:24:02.227Z,65.23
2019-05-15T02:26:34.489Z,65.21
2019-05-15T02:29:07.857Z,65.53
2019-05-15T02:31:39.655Z,66.14
2019-05-15T02:34:11.286Z,66.12
2019-05-15T02:36:43.037Z,66.08
2019-05-15T02:39:14.583Z,66.12
2019-05-15T02:41:49.282Z,65.85
2019-05-15T02:44:20.160Z,65.43
2019-05-15T02:46:51.808Z,65.26
2019-05-15T02:49:23.361Z,65.21
2019-05-15T02:51:55.077Z,65.18
2019-05-15T02:54:29.909Z,65.05
2019-05-15T02:57:00.190Z,64.92
2019-05-15T02:59:31.931Z,65.08
2019-05-15T03:02:03.577Z,65.27
2019-05-15T03:04:34.977Z,65.34
2019-05-15T03:07:09.413Z,65.34
2019-05-15T03:09:40.141Z,65.36
2019-05-15T03:12:11.857Z,65.10
2019-05-15T03:14:43.613Z,64.73
2019-05-15T03:17:19.061Z,64.54
2019-05-15T03:19:49.961Z,64.28
2019-05-15T03:22:21.528Z,64.13
2019-05-15T03:24:52.994Z,63.97
2019-05-15T03:27:24.777Z,64.47
2019-05-15T03:29:59.372Z,65.23
2019-05-15T03:32:41.940Z,65.18
2019-05-15T03:35:05.294Z,65.53
2019-05-15T03:37:39.734Z,64.76
2019-05-15T03:40:11.165Z,64.15
2019-05-15T03:42:42.532Z,63.82
2019-05-15T03:45:14.513Z,63.64
2019-05-15T03:47:48.962Z,63.62
2019-05-15T03:50:19.688Z,63.68
2019-05-15T03:52:51.582Z,63.47
2019-05-15T03:55:24.643Z,63.00
2019-05-15T03:57:59.138Z,62.77
2019-05-15T04:00:31.214Z,62.56
2019-05-15T04:03:02.809Z,62.51
2019-05-15T04:05:34.542Z,62.45
2019-05-15T04:08:06.089Z,62.49
2019-05-15T04:10:40.000Z,62.42
2019-05-15T04:13:11.028Z,62.20
2019-05-15T04:15:42.532Z,61.93
2019-05-15T04:18:14.041Z,62.00
2019-05-15T04:20:45.570Z,61.96
2019-05-15T04:23:20.080Z,62.28
2019-05-15T04:25:53.814Z,62.32
2019-05-15T04:28:29.240Z,61.77
2019-05-15T04:31:00.102Z,61.84
2019-05-15T04:33:31.643Z,62.19
2019-05-15T04:36:03.304Z,61.78
2019-05-15T04:38:35.083Z,61.06
2019-05-15T04:41:09.576Z,60.43
2019-05-15T04:43:44.798Z,60.22
2019-05-15T04:46:12.981Z,60.08
2019-05-15T04:48:44.527Z,59.97
2019-05-15T04:51:18.907Z,60.17
2019-05-15T04:53:50.481Z,59.87
2019-05-15T04:56:22.158Z,60.05
2019-05-15T04:58:54.017Z,60.11
2019-05-15T05:01:28.693Z,59.98
2019-05-15T05:03:59.347Z,59.72
2019-05-15T05:06:31.343Z,59.63
2019-05-15T05:09:04.940Z,60.01
2019-05-15T05:11:38.298Z,60.05
2019-05-15T05:14:09.882Z,59.75
2019-05-15T05:16:41.439Z,59.70
2019-05-15T05:19:13.221Z,59.09
2019-05-15T05:21:44.650Z,58.50
2019-05-15T05:24:18.428Z,58.02
2019-05-15T05:26:49.880Z,57.67
2019-05-15T05:29:21.866Z,57.20
2019-05-15T05:31:53.621Z,56.66
2019-05-15T05:34:25.514Z,55.50
2019-05-15T05:36:58.918Z,54.60
2019-05-15T05:39:31.053Z,53.79
2019-05-15T05:42:02.599Z,54.83
2019-05-15T05:44:34.560Z,54.94
2019-05-15T05:47:09.134Z,54.73
2019-05-15T05:49:39.611Z,55.26
2019-05-15T05:52:11.467Z,55.62
2019-05-15T05:54:43.309Z,55.09
2019-05-15T05:57:14.694Z,55.93
2019-05-15T05:59:49.002Z,56.04
2019-05-15T06:02:21.881Z,55.79
2019-05-15T06:04:53.758Z,54.97
2019-05-15T06:07:27.811Z,54.34
2019-05-15T06:10:00.559Z,54.80
2019-05-15T06:12:32.390Z,55.23
2019-05-15T06:15:04.962Z,54.95
2019-05-15T06:17:38.776Z,54.61
2019-05-15T06:20:09.843Z,54.56
2019-05-15T06:22:41.471Z,54.23
2019-05-15T06:25:13.139Z,54.59
2019-05-15T06:27:44.700Z,53.88
2019-05-15T06:30:22.160Z,53.31
2019-05-15T06:33:04.315Z,52.63
2019-05-15T06:35:23.542Z,52.88
2019-05-15T06:37:55.033Z,52.40
2019-05-15T06:40:28.761Z,52.44
2019-05-15T06:42:59.623Z,53.27
2019-05-15T06:45:31.209Z,53.55
2019-05-15T06:48:03.034Z,53.95
2019-05-15T06:50:38.408Z,52.82
2019-05-15T06:53:10.754Z,52.20
2019-05-15T06:55:42.514Z,51.64
2019-05-15T06:58:13.966Z,52.28
2019-05-15T07:00:48.415Z,52.53
2019-05-15T07:03:25.409Z,51.62
2019-05-15T07:05:52.307Z,50.48
2019-05-15T07:08:23.958Z,49.84
2019-05-15T07:10:57.724Z,47.88
2019-05-15T07:13:29.192Z,48.30
2019-05-15T07:16:00.677Z,47.90
2019-05-15T07:18:32.561Z,48.42
2019-05-15T07:21:03.998Z,47.01
2019-05-15T07:23:35.377Z,46.52
2019-05-15T07:26:09.553Z,45.60
2019-05-15T07:28:40.896Z,45.16
2019-05-15T07:31:12.553Z,45.92
2019-05-15T07:33:44.208Z,45.53
2019-05-15T07:36:15.680Z,45.07
2019-05-15T07:38:48.547Z,45.17
2019-05-15T07:41:20.217Z,45.66
2019-05-15T07:43:51.875Z,45.90
2019-05-15T07:46:23.595Z,44.97
2019-05-15T07:48:55.462Z,44.72
2019-05-15T07:51:28.670Z,44.31
2019-05-15T07:54:02.640Z,44.08
2019-05-15T07:56:34.414Z,43.12
2019-05-15T07:59:07.916Z,43.25
2019-05-15T08:01:39.185Z,43.14
2019-05-15T08:04:24.853Z,41.73
2019-05-15T08:06:44.213Z,43.11
2019-05-15T08:09:17.866Z,40.53
2019-05-15T08:11:48.873Z,40.35
2019-05-15T08:14:20.513Z,40.18
2019-05-15T08:16:52.253Z,41.70
2019-05-15T08:19:23.757Z,42.64
2019-05-15T08:21:55.393Z,43.00
2019-05-15T08:24:29.848Z,42.93
2019-05-15T08:27:00.749Z,41.34
2019-05-15T08:29:32.498Z,40.95
2019-05-15T08:32:03.947Z,41.30
2019-05-15T08:34:35.599Z,41.55
2019-05-15T08:37:07.936Z,40.84
2019-05-15T08:39:39.513Z,40.42
2019-05-15T08:42:10.850Z,40.17
2019-05-15T08:44:42.432Z,40.12
2019-05-15T08:47:14.078Z,39.93
2019-05-15T08:49:45.723Z,40.43
2019-05-15T08:52:18.896Z,40.53
2019-05-15T08:54:50.739Z,40.12
2019-05-15T08:57:22.655Z,40.58
2019-05-15T08:59:58.191Z,38.36
2019-05-15T09:02:30.049Z,39.47
2019-05-15T09:05:01.917Z,39.93
2019-05-15T09:07:33.570Z,40.22
2019-05-15T09:10:09.036Z,40.56
2019-05-15T09:12:40.754Z,41.48
2019-05-15T09:15:13.063Z,38.65
2019-05-15T09:17:44.794Z,40.19
2019-05-15T09:20:19.433Z,39.10
2019-05-15T09:22:50.252Z,40.82
2019-05-15T09:25:23.129Z,40.73
2019-05-15T09:27:55.069Z,40.94
2019-05-15T09:30:28.606Z,39.06
2019-05-15T09:33:00.685Z,39.81
2019-05-15T09:35:32.616Z,40.86
2019-05-15T09:38:04.271Z,39.29
2019-05-15T09:40:45.070Z,39.43
2019-05-15T09:43:11.053Z,38.75
2019-05-15T09:45:42.613Z,38.79
2019-05-15T09:48:14.856Z,40.83
2019-05-15T09:50:48.976Z,40.69
2019-05-15T09:53:19.817Z,39.20
2019-05-15T09:55:51.415Z,36.94
2019-05-15T09:58:23.246Z,36.92
2019-05-15T10:00:55.209Z,37.07
2019-05-15T10:03:28.248Z,39.09
2019-05-15T10:06:00.124Z,37.46
2019-05-15T10:08:31.612Z,37.81
2019-05-15T10:11:03.370Z,38.29
2019-05-15T10:13:35.259Z,38.80
2019-05-15T10:16:08.332Z,38.88
2019-05-15T10:18:39.735Z,38.83
2019-05-15T10:21:11.217Z,38.32
2019-05-15T10:23:42.924Z,40.49
2019-05-15T10:26:14.812Z,38.05
2019-05-15T10:28:49.037Z,40.29
2019-05-15T10:31:20.090Z,40.15
2019-05-15T10:33:51.517Z,39.20
2019-05-15T10:36:23.847Z,37.74
2019-05-15T10:38:55.712Z,36.75
2019-05-15T10:41:28.136Z,36.31
2019-05-15T10:44:00.384Z,37.70
2019-05-15T10:46:33.194Z,38.76
2019-05-15T10:49:04.676Z,38.71
2019-05-15T10:51:39.279Z,39.52
2019-05-15T10:54:09.457Z,38.74
2019-05-15T10:56:40.802Z,37.47
2019-05-15T10:59:12.427Z,37.08
2019-05-15T11:01:44.252Z,38.16
2019-05-15T11:04:18.151Z,38.35
2019-05-15T11:06:49.435Z,38.63
2019-05-15T11:09:21.284Z,40.13
2019-05-15T11:11:52.920Z,39.99
2019-05-15T11:14:24.841Z,40.96
2019-05-15T11:16:58.802Z,40.58
2019-05-15T11:19:35.758Z,42.06
2019-05-15T11:22:03.052Z,41.91
2019-05-15T11:24:34.784Z,40.19
2019-05-15T11:27:09.934Z,40.10
2019-05-15T11:29:39.624Z,40.57
2019-05-15T11:32:11.141Z,41.07
2019-05-15T11:34:43.662Z,42.90
2019-05-15T11:37:15.412Z,41.24
2019-05-15T11:39:47.483Z,41.00
2019-05-15T11:42:20.318Z,41.60
2019-05-15T11:44:53.386Z,41.69
2019-05-15T11:47:25.020Z,41.46
2019-05-15T11:49:58.550Z,41.00
2019-05-15T11:52:30.271Z,40.74
2019-05-15T11:55:02.035Z,44.41
2019-05-15T11:57:42.606Z,42.98
2019-05-15T12:00:15.104Z,42.03
2019-05-15T12:02:42.311Z,41.83
2019-05-15T12:05:14.446Z,41.74
2019-05-15T12:07:47.856Z,41.16
2019-05-15T12:10:19.709Z,40.75
2019-05-15T12:12:51.277Z,41.55
2019-05-15T12:15:23.018Z,41.26
2019-05-15T12:17:54.794Z,41.45
2019-05-15T12:20:28.619Z,41.06
2019-05-15T12:23:00.152Z,41.03
2019-05-15T12:25:32.138Z,41.30
2019-05-15T12:28:03.675Z,41.92
2019-05-15T12:30:35.531Z,39.89
2019-05-15T12:33:09.273Z,38.69
2019-05-15T12:35:40.849Z,38.40
2019-05-15T12:38:12.655Z,38.50
2019-05-15T13:01:18.174Z,37.76
2019-05-15T13:03:48.772Z,38.07
2019-05-15T13:06:20.434Z,38.21
2019-05-15T13:08:52.001Z,37.54
2019-05-15T13:11:23.432Z,36.79
2019-05-15T13:13:55.170Z,37.47
2019-05-15T13:16:28.144Z,38.00
2019-05-15T13:18:59.715Z,37.92
2019-05-15T13:21:31.576Z,37.75
2019-05-15T13:24:03.486Z,38.45
2019-05-15T13:26:38.313Z,38.03
2019-05-15T13:29:10.332Z,37.84
2019-05-15T13:31:41.784Z,37.51
2019-05-15T13:34:13.642Z,37.95
2019-05-15T13:36:45.204Z,38.08
2019-05-15T13:39:18.482Z,38.82
2019-05-15T13:41:50.362Z,37.86
2019-05-15T13:44:22.948Z,37.64
2019-05-15T13:46:54.579Z,37.46
2019-05-15T13:49:28.120Z,37.70
2019-05-15T13:51:59.728Z,37.86
2019-05-15T13:54:31.198Z,37.40
2019-05-15T13:57:02.955Z,37.67
2019-05-15T13:59:34.686Z,36.33
2019-05-15T14:02:08.549Z,35.81
2019-05-15T14:04:40.158Z,35.65
2019-05-15T14:07:12.859Z,35.68
2019-05-15T14:09:44.993Z,35.15
2019-05-15T14:12:18.276Z,35.30
2019-05-15T14:14:49.881Z,36.14
2019-05-15T14:17:21.814Z,36.70
2019-05-15T14:19:53.383Z,36.21
2019-05-15T14:22:25.156Z,36.62
2019-05-15T14:24:58.383Z,36.43
2019-05-15T14:27:29.971Z,36.90
2019-05-15T14:30:01.645Z,36.87
2019-05-15T14:32:38.596Z,37.09
2019-05-15T14:35:09.123Z,37.37
2019-05-15T14:37:40.576Z,37.93
2019-05-15T14:40:13.759Z,36.53
2019-05-15T14:42:48.636Z,36.60
2019-05-15T14:45:20.450Z,37.33
2019-05-15T14:47:52.249Z,37.54
2019-05-15T14:50:24.278Z,37.49
2019-05-15T14:52:58.411Z,37.82
2019-05-15T14:55:33.683Z,38.26
2019-05-15T14:58:02.433Z,38.72
2019-05-15T15:00:35.022Z,39.15
2019-05-15T15:03:09.480Z,39.39
2019-05-15T15:05:40.012Z,40.05
2019-05-15T15:08:24.034Z,40.02
2019-05-15T15:10:44.911Z,39.93
2019-05-15T15:13:18.246Z,38.97
2019-05-15T15:15:49.576Z,39.39
2019-05-15T15:18:21.155Z,39.78
2019-05-15T15:20:53.249Z,40.11
2019-05-15T15:23:25.008Z,40.07
2019-05-15T15:25:57.841Z,40.00
2019-05-15T15:28:30.517Z,40.16
2019-05-15T15:31:02.327Z,40.48
2019-05-15T15:33:33.925Z,40.99
2019-05-15T15:36:05.353Z,41.40
2019-05-15T15:38:43.112Z,40.92
2019-05-15T15:41:10.687Z,41.49
2019-05-15T15:43:42.550Z,41.54
2019-05-15T15:46:14.346Z,41.07
2019-05-15T15:48:48.391Z,41.31
2019-05-15T15:51:19.781Z,41.18
2019-05-15T15:53:51.445Z,41.13
2019-05-15T15:56:23.147Z,40.83
2019-05-15T15:58:54.640Z,41.72
2019-05-15T16:01:28.481Z,41.40
2019-05-15T16:03:59.929Z,41.24
2019-05-15T16:06:31.247Z,41.39
2019-05-15T16:09:03.106Z,42.31
2019-05-15T16:11:34.752Z,42.33
2019-05-15T16:14:08.930Z,42.89
2019-05-15T16:16:39.903Z,43.41
2019-05-15T16:19:11.680Z,44.26
2019-05-15T16:21:45.316Z,43.95
2019-05-15T16:24:20.793Z,44.67
2019-05-15T16:26:50.423Z,44.70
2019-05-15T16:29:22.182Z,45.42
2019-05-15T16:31:58.095Z,46.47
2019-05-15T16:34:29.202Z,46.75
2019-05-15T16:37:01.254Z,47.72
2019-05-15T16:39:33.178Z,47.11
2019-05-15T16:42:05.245Z,46.90
2019-05-15T16:44:38.409Z,47.39
2019-05-15T16:47:11.346Z,47.88
2019-05-15T16:49:43.248Z,48.35
2019-05-15T16:52:14.795Z,48.54
2019-05-15T16:54:48.949Z,48.91
2019-05-15T16:57:21.474Z,49.32
2019-05-15T16:59:53.320Z,49.29
2019-05-15T17:02:25.297Z,49.73
2019-05-15T17:04:57.329Z,49.34
2019-05-15T17:07:29.945Z,49.27
2019-05-15T17:10:02.017Z,49.72
2019-05-15T17:12:35.229Z,50.36
2019-05-15T17:15:09.092Z,50.45
2019-05-15T17:17:40.936Z,50.67
2019-05-15T17:20:13.259Z,50.02
2019-05-15T17:22:45.163Z,50.50
2019-05-15T17:25:18.376Z,50.21
2019-05-15T17:27:50.245Z,51.09
2019-05-15T17:30:22.491Z,51.41
2019-05-15T17:32:54.399Z,51.30
2019-05-15T17:35:27.810Z,50.67
2019-05-15T17:37:59.323Z,50.99
2019-05-15T17:40:31.205Z,51.80
2019-05-15T17:43:03.248Z,51.83
2019-05-15T17:45:39.030Z,52.01
2019-05-15T17:48:12.878Z,52.49
2019-05-15T17:50:48.960Z,52.59
2019-05-15T17:53:18.327Z,52.74
2019-05-15T17:55:50.959Z,53.20
2019-05-15T17:58:24.102Z,53.58
2019-05-15T18:00:59.222Z,53.01
2019-05-15T18:03:30.771Z,53.25
2019-05-15T18:06:02.985Z,53.05
2019-05-15T18:08:38.860Z,53.19
2019-05-15T18:11:09.854Z,53.51
2019-05-15T18:13:41.559Z,53.51
2019-05-15T18:16:13.980Z,54.00
2019-05-15T18:18:47.791Z,55.87
2019-05-15T18:21:20.131Z,54.81
2019-05-15T18:23:51.673Z,54.74
2019-05-15T18:26:23.169Z,55.03
2019-05-15T18:28:55.158Z,54.33
2019-05-15T18:31:28.631Z,53.99
2019-05-15T18:34:01.705Z,53.65
2019-05-15T18:36:33.659Z,53.39
2019-05-15T18:39:08.434Z,53.87
2019-05-15T18:41:40.362Z,54.22
2019-05-15T18:44:12.358Z,53.99
2019-05-15T18:46:45.048Z,53.97
2019-05-15T18:49:17.932Z,53.77
2019-05-15T18:51:50.842Z,54.03
2019-05-15T18:54:22.595Z,53.83
2019-05-15T18:56:53.982Z,53.88
2019-05-15T18:59:25.530Z,54.33
2019-05-15T19:01:58.644Z,53.65
2019-05-15T19:04:30.447Z,53.79
2019-05-15T19:07:02.726Z,53.91
2019-05-15T19:09:38.653Z,53.79
2019-05-15T19:12:10.167Z,54.19
2019-05-15T19:14:42.018Z,54.21
2019-05-15T19:17:14.185Z,54.39
2019-05-15T19:19:48.218Z,54.52
2019-05-15T19:22:19.727Z,54.54
2019-05-15T19:24:51.532Z,53.93
2019-05-15T19:27:23.372Z,55.12
2019-05-15T19:29:58.905Z,54.92
2019-05-15T19:32:29.809Z,54.72
2019-05-15T19:35:02.223Z,55.21
2019-05-15T19:37:34.700Z,54.97
2019-05-15T19:40:07.594Z,54.84
2019-05-15T19:42:39.174Z,54.83
2019-05-15T19:45:11.036Z,54.46
2019-05-15T19:47:43.671Z,54.97
2019-05-15T19:50:18.107Z,55.45
2019-05-15T19:52:50.901Z,55.70
2019-05-15T19:55:22.857Z,56.19
2019-05-15T19:57:54.532Z,55.88
2019-05-15T20:00:28.551Z,56.08
2019-05-15T20:03:00.364Z,55.91
2019-05-15T20:05:32.228Z,56.52
2019-05-15T20:08:04.672Z,56.99
2019-05-15T20:10:39.095Z,56.69
2019-05-15T20:13:09.853Z,56.94
2019-05-15T20:15:41.954Z,57.19
2019-05-15T20:18:14.225Z,57.43
2019-05-15T20:20:47.771Z,57.65
2019-05-15T20:23:19.900Z,57.43
2019-05-15T20:25:51.840Z,57.56
2019-05-15T20:28:23.878Z,57.33
2019-05-15T20:30:56.042Z,56.46
2019-05-15T20:33:28.553Z,56.57
2019-05-15T20:36:00.470Z,55.60
2019-05-15T20:38:32.910Z,56.41
2019-05-15T20:41:04.319Z,56.28
2019-05-15T20:43:38.302Z,57.00
2019-05-15T20:46:09.766Z,56.88
2019-05-15T20:48:42.063Z,56.72
2019-05-15T20:51:14.001Z,56.29
2019-05-15T20:53:45.859Z,56.67
2019-05-15T20:56:17.716Z,56.82
2019-05-15T20:58:49.780Z,57.23
2019-05-15T21:01:21.846Z,57.55
2019-05-15T21:03:53.535Z,57.99
2019-05-15T21:06:25.361Z,57.82
2019-05-15T21:08:57.930Z,58.04
2019-05-15T21:11:29.906Z,58.43
2019-05-15T21:14:02.200Z,58.23
2019-05-15T21:16:33.926Z,58.35
2019-05-15T21:19:07.957Z,57.98
2019-05-15T21:21:39.628Z,58.16
2019-05-15T21:24:11.755Z,57.12
2019-05-15T21:26:43.823Z,56.98
2019-05-15T21:29:15.725Z,57.21
2019-05-15T21:31:48.959Z,57.89
2019-05-15T21:34:36.713Z,58.01
2019-05-15T21:36:54.353Z,58.41
2019-05-15T21:39:29.875Z,58.80
2019-05-15T21:42:00.129Z,58.89
2019-05-15T21:44:32.161Z,58.58
2019-05-15T21:47:03.818Z,58.53
2019-05-15T21:49:36.089Z,58.40
2019-05-15T21:52:08.467Z,58.54
2019-05-15T21:54:40.428Z,57.89
2019-05-15T21:57:28.765Z,58.60
2019-05-15T21:59:46.081Z,58.64
2019-05-15T22:02:18.624Z,58.70
2019-05-15T22:04:55.932Z,58.81
2019-05-15T22:07:25.080Z,58.88
2019-05-15T22:09:57.145Z,59.29
2019-05-15T22:12:30.507Z,59.07
2019-05-15T22:15:02.249Z,58.98
2019-05-15T22:17:34.480Z,58.87
2019-05-15T22:20:09.261Z,58.98
2019-05-15T22:22:40.812Z,58.97
2019-05-15T22:25:13.182Z,59.47
2019-05-15T22:27:44.893Z,59.93
2019-05-15T22:30:17.533Z,59.88
2019-05-15T22:32:49.772Z,59.36
2019-05-15T22:35:21.853Z,59.45
2019-05-15T22:37:53.644Z,59.09
2019-05-15T22:40:28.648Z,58.78
2019-05-15T22:42:59.893Z,59.21
2019-05-15T22:45:31.996Z,59.89
2019-05-15T22:48:04.025Z,59.66
2019-05-15T22:50:38.324Z,59.42
2019-05-15T22:53:10.299Z,59.25
2019-05-15T22:55:42.664Z,59.39
2019-05-15T22:58:14.456Z,60.00
2019-05-15T23:00:48.888Z,60.65
2019-05-15T23:03:20.208Z,60.20
2019-05-15T23:05:52.090Z,60.95
2019-05-15T23:08:24.616Z,60.44
2019-05-15T23:10:58.814Z,60.59
2019-05-15T23:13:30.436Z,59.74
2019-05-15T23:16:02.289Z,60.40
2019-05-15T23:18:34.278Z,60.01
2019-05-15T23:21:08.698Z,59.95
2019-05-15T23:23:39.746Z,60.12
2019-05-15T23:26:12.020Z,60.11
2019-05-15T23:28:44.027Z,59.31
2019-05-15T23:31:15.922Z,59.08
2019-05-15T23:33:48.170Z,60.06
2019-05-15T23:36:20.029Z,59.96
2019-05-15T23:38:51.986Z,60.48
2019-05-15T23:41:24.158Z,60.09
2019-05-15T23:43:56.217Z,60.47
2019-05-15T23:46:28.829Z,60.40
2019-05-15T23:49:00.682Z,60.38
2019-05-15T23:51:32.804Z,60.21
2019-05-15T23:54:05.495Z,60.56
2019-05-15T23:56:38.730Z,60.01
2019-05-15T23:59:10.545Z,60.36
